Time;durP1;ratioP1;P1;durP2;ratioP2;P2;SDS_P1;SDS_P2;PMS_P1;PMS_P2;Temp;Humidity;BMP_temperature;BMP_pressure;BME280_temperature;BME280_humidity;BME280_pressure;Samples;Min_cycle;Max_cycle;Signal;HPM_P1;HPM_P2
2022/12/12 00:00:33;;;;;;;90.40;18.37;;;2.00;99.90;;;;;;5022793;28;20265;-83
2022/12/12 00:02:59;;;;;;;86.95;17.65;;;2.10;99.90;;;;;;5005084;28;20194;-83
2022/12/12 00:05:25;;;;;;;87.23;16.40;;;2.00;99.90;;;;;;5022600;28;20170;-83
2022/12/12 00:07:50;;;;;;;84.80;17.23;;;2.10;99.90;;;;;;5004853;28;20261;-83
2022/12/12 00:10:16;;;;;;;87.23;17.40;;;2.10;99.90;;;;;;5022841;28;20193;-83
2022/12/12 00:12:42;;;;;;;83.77;16.13;;;2.10;99.90;;;;;;5022477;28;20717;-83
2022/12/12 00:15:08;;;;;;;84.27;16.00;;;2.10;99.90;;;;;;5022390;28;20170;-83
2022/12/12 00:17:33;;;;;;;89.05;15.98;;;2.10;99.90;;;;;;5022059;28;20256;-83
2022/12/12 00:19:59;;;;;;;90.17;17.60;;;2.10;99.90;;;;;;5021589;28;20554;-83
2022/12/12 00:22:25;;;;;;;88.27;16.37;;;2.10;99.90;;;;;;5021734;28;20608;-83
2022/12/12 00:24:50;;;;;;;87.70;16.97;;;2.10;99.90;;;;;;5022662;28;20412;-83
2022/12/12 00:27:16;;;;;;;87.47;17.67;;;2.10;99.90;;;;;;5022354;28;20170;-83
2022/12/12 00:29:42;;;;;;;87.10;17.63;;;2.10;99.90;;;;;;5022292;28;20197;-83
2022/12/12 00:32:08;;;;;;;88.17;16.10;;;2.10;99.90;;;;;;5021660;28;20427;-83
2022/12/12 00:34:33;;;;;;;87.20;18.20;;;2.10;99.90;;;;;;5005010;28;20174;-83
2022/12/12 00:36:59;;;;;;;88.80;17.30;;;2.00;99.90;;;;;;5021571;28;20638;-83
2022/12/12 00:39:24;;;;;;;83.43;16.20;;;2.00;99.90;;;;;;5004073;28;20169;-83
2022/12/12 00:41:50;;;;;;;86.37;17.60;;;2.00;99.90;;;;;;5021978;28;20198;-83
2022/12/12 00:44:17;;;;;;;86.90;16.67;;;2.10;99.90;;;;;;5021272;28;20638;-83
2022/12/12 00:46:43;;;;;;;82.07;15.13;;;2.10;99.90;;;;;;5004388;28;20425;-83
2022/12/12 00:49:09;;;;;;;85.77;15.73;;;2.10;99.90;;;;;;5021449;28;20161;-83
2022/12/12 00:51:35;;;;;;;83.47;16.57;;;2.10;99.90;;;;;;5021641;28;20447;-83
2022/12/12 00:54:00;;;;;;;83.23;15.33;;;2.10;99.90;;;;;;5021309;28;20657;-83
2022/12/12 00:56:27;;;;;;;86.80;16.40;;;2.10;99.90;;;;;;5021586;28;20166;-83
2022/12/12 00:58:53;;;;;;;90.15;15.93;;;2.10;99.90;;;;;;5021073;28;20466;-83
2022/12/12 01:01:29;;;;;;;83.10;16.60;;;1.90;99.90;;;;;;5021366;28;20251;-83
2022/12/12 01:03:55;;;;;;;89.47;16.73;;;1.90;99.90;;;;;;5021684;28;20737;-83
2022/12/12 01:06:21;;;;;;;87.27;17.00;;;1.90;99.90;;;;;;5021739;28;20170;-83
2022/12/12 01:08:47;;;;;;;90.60;17.80;;;1.90;99.90;;;;;;5003672;28;20541;-83
2022/12/12 01:11:14;;;;;;;82.37;15.63;;;1.80;99.90;;;;;;5021496;28;20196;-83
2022/12/12 01:13:40;;;;;;;86.05;16.80;;;1.90;99.90;;;;;;5002243;28;20189;-83
2022/12/12 01:16:07;;;;;;;85.63;15.50;;;1.90;99.90;;;;;;5020727;28;20177;-83
2022/12/12 01:18:34;;;;;;;86.22;17.15;;;2.00;99.90;;;;;;5020662;28;20274;-83
2022/12/12 01:21:00;;;;;;;86.50;15.80;;;2.00;99.90;;;;;;5020073;28;20272;-83
2022/12/12 01:23:26;;;;;;;87.97;19.05;;;2.00;99.90;;;;;;5023068;28;20189;-82
2022/12/12 01:26:03;;;;;;;88.43;16.93;;;2.00;99.90;;;;;;5008259;28;20193;-83
2022/12/12 01:28:28;;;;;;;86.70;17.80;;;2.10;99.90;;;;;;5002893;28;20393;-83
2022/12/12 01:30:57;;;;;;;90.07;18.60;;;2.00;99.90;;;;;;5021053;28;20209;-83
2022/12/12 01:33:23;;;;;;;94.57;18.40;;;2.00;99.90;;;;;;5020589;28;20224;-83
2022/12/12 01:35:49;;;;;;;96.00;17.83;;;2.00;99.90;;;;;;5020505;28;20169;-83
2022/12/12 01:38:15;;;;;;;87.63;17.42;;;2.00;99.90;;;;;;5021126;28;20500;-83
2022/12/12 01:40:40;;;;;;;90.17;21.00;;;2.00;99.90;;;;;;5020301;28;20185;-83
2022/12/12 01:43:25;;;;;;;86.47;17.93;;;1.90;99.90;;;;;;5003015;28;20451;-83
2022/12/12 01:46:07;;;;;;;86.55;16.67;;;1.90;99.90;;;;;;5020905;28;20150;-83
2022/12/12 01:48:48;;;;;;;84.70;14.75;;;1.80;99.90;;;;;;5020619;28;20138;-83
2022/12/12 01:51:17;;;;;;;87.43;16.25;;;1.80;99.90;;;;;;5020416;28;20581;-83
2022/12/12 01:53:44;;;;;;;85.22;14.65;;;1.80;99.90;;;;;;5020441;28;20158;-83
2022/12/12 01:56:14;;;;;;;86.80;14.63;;;1.80;99.90;;;;;;5020270;28;20218;-83
2022/12/12 01:58:42;;;;;;;81.55;13.82;;;1.80;99.90;;;;;;5019756;28;20165;-83
2022/12/12 02:01:09;;;;;;;82.25;15.88;;;1.80;99.90;;;;;;5020860;28;20186;-83
2022/12/12 02:03:36;;;;;;;84.93;15.75;;;1.80;99.90;;;;;;5002522;28;20608;-83
2022/12/12 02:06:05;;;;;;;83.75;15.18;;;1.90;99.90;;;;;;5019786;28;20158;-83
2022/12/12 02:08:31;;;;;;;81.82;14.55;;;1.80;99.90;;;;;;5020276;28;20292;-83
2022/12/12 02:10:57;;;;;;;83.47;16.67;;;1.80;99.90;;;;;;5020199;28;20244;-83
2022/12/12 02:13:27;;;;;;;83.97;15.90;;;1.90;99.90;;;;;;5019567;28;20571;-83
2022/12/12 02:16:22;;;;;;;83.60;14.40;;;1.80;99.90;;;;;;5018732;28;20540;-83
2022/12/12 02:19:22;;;;;;;84.10;14.13;;;1.70;99.90;;;;;;4988211;28;20178;-83
2022/12/12 02:22:20;;;;;;;86.47;14.95;;;1.70;99.90;;;;;;5018373;28;20247;-83
2022/12/12 02:24:58;;;;;;;81.50;14.50;;;1.70;99.90;;;;;;4990561;28;20174;-82
2022/12/12 02:27:49;;;;;;;86.15;13.73;;;1.60;99.90;;;;;;5018720;28;20181;-83
2022/12/12 02:30:18;;;;;;;84.93;12.13;;;1.70;99.90;;;;;;4978351;28;20196;-83
2022/12/12 02:33:05;;;;;;;83.93;12.63;;;1.70;99.90;;;;;;5000419;28;20265;-82
2022/12/12 02:35:53;;;;;;;83.47;12.93;;;1.70;99.90;;;;;;5000649;28;20565;-82
2022/12/12 02:38:50;;;;;;;85.72;13.40;;;1.70;99.90;;;;;;5000515;28;20196;-82
2022/12/12 02:41:39;;;;;;;80.07;12.82;;;1.70;99.90;;;;;;5017578;28;20196;-82
2022/12/12 02:44:36;;;;;;;81.60;12.48;;;1.60;99.90;;;;;;5018333;28;20595;-83
2022/12/12 02:47:24;;;;;;;78.82;12.43;;;1.60;99.90;;;;;;5018279;28;20501;-82
2022/12/12 02:49:54;;;;;;;80.25;13.23;;;1.60;99.90;;;;;;5008092;28;20232;-83
2022/12/12 02:52:20;;;;;;;81.22;13.82;;;1.60;99.90;;;;;;5019125;28;20157;-82
2022/12/12 02:54:47;;;;;;;79.28;12.48;;;1.60;99.90;;;;;;5018550;28;20166;-82
2022/12/12 02:57:18;;;;;;;79.65;11.52;;;1.60;99.90;;;;;;5018764;28;20732;-82
2022/12/12 02:59:52;;;;;;;75.85;10.40;;;1.60;99.90;;;;;;5000838;28;20173;-83
2022/12/12 03:02:36;;;;;;;80.45;12.20;;;1.40;99.90;;;;;;5018072;28;20189;-82
2022/12/12 03:07:58;;;;;;;78.53;11.80;;;1.40;99.90;;;;;;5019374;28;20161;-82
2022/12/12 03:10:35;;;;;;;80.70;12.25;;;1.30;99.90;;;;;;5019256;28;20321;-83
2022/12/12 03:13:26;;;;;;;77.10;10.88;;;1.30;99.90;;;;;;5019103;28;20192;-83
2022/12/12 03:16:22;;;;;;;77.63;11.10;;;1.30;99.90;;;;;;5019107;28;20154;-83
2022/12/12 03:18:54;;;;;;;76.22;10.43;;;1.30;99.90;;;;;;5019425;28;20150;-83
2022/12/12 03:21:34;;;;;;;82.10;13.07;;;1.40;99.90;;;;;;5021316;28;20216;-82
2022/12/12 03:24:07;;;;;;;78.72;11.40;;;1.40;99.90;;;;;;5004752;28;20193;-83
2022/12/12 03:26:45;;;;;;;81.05;11.48;;;1.50;99.90;;;;;;5004955;28;20170;-83
2022/12/12 03:29:15;;;;;;;81.40;11.48;;;1.50;99.90;;;;;;5004654;28;20169;-82
2022/12/12 03:31:47;;;;;;;77.35;10.82;;;1.40;99.90;;;;;;5022927;28;20215;-82
2022/12/12 03:34:24;;;;;;;78.90;12.23;;;1.30;99.90;;;;;;5022244;28;20146;-83
2022/12/12 03:36:58;;;;;;;74.63;10.57;;;1.40;99.90;;;;;;5022390;28;20142;-82
2022/12/12 03:39:32;;;;;;;80.45;12.73;;;1.30;99.90;;;;;;5004494;28;20162;-83
2022/12/12 03:42:30;;;;;;;77.28;10.57;;;1.30;99.90;;;;;;5021779;28;20194;-82
2022/12/12 03:45:10;;;;;;;76.97;12.02;;;1.20;99.90;;;;;;5005288;28;20648;-83
2022/12/12 03:47:44;;;;;;;75.40;10.60;;;1.10;99.90;;;;;;5022703;28;20601;-83
2022/12/12 03:50:17;;;;;;;76.32;10.98;;;1.10;99.90;;;;;;5004521;28;20742;-83
2022/12/12 03:52:52;;;;;;;77.35;12.38;;;1.10;99.90;;;;;;5021890;28;20197;-83
2022/12/12 03:55:37;;;;;;;76.63;10.75;;;1.10;99.90;;;;;;5022866;28;20166;-83
2022/12/12 03:58:32;;;;;;;80.07;10.48;;;1.20;99.90;;;;;;5022763;28;20175;-83
2022/12/12 04:01:03;;;;;;;77.97;11.30;;;1.10;99.90;;;;;;5002730;28;20198;-83
2022/12/12 04:03:43;;;;;;;76.55;11.48;;;1.10;99.90;;;;;;5022795;28;20209;-83
2022/12/12 04:06:26;;;;;;;74.70;10.35;;;1.10;99.90;;;;;;5004723;28;20513;-83
2022/12/12 04:15:29;;;;;;;75.40;10.65;;;1.10;99.90;;;;;;5022691;28;20189;-83
2022/12/12 04:18:10;;;;;;;76.10;12.35;;;1.00;99.90;;;;;;5004597;28;20162;-83
2022/12/12 04:23:45;;;;;;;75.82;10.90;;;1.00;99.90;;;;;;5022135;28;20232;-83
2022/12/12 04:26:39;;;;;;;73.28;10.10;;;1.00;99.90;;;;;;5004516;28;20170;-83
2022/12/12 04:29:19;;;;;;;76.38;10.77;;;0.90;99.90;;;;;;5004487;28;20162;-83
2022/12/12 04:31:51;;;;;;;77.18;10.48;;;0.90;99.90;;;;;;5025698;28;20177;-82
2022/12/12 04:34:37;;;;;;;77.75;11.75;;;1.00;99.90;;;;;;5020845;28;20146;-82
2022/12/12 04:37:09;;;;;;;78.35;11.27;;;1.00;99.90;;;;;;5009424;28;20213;-83
2022/12/12 04:39:37;;;;;;;84.05;12.38;;;1.10;99.90;;;;;;5020444;28;20153;-83
2022/12/12 04:42:06;;;;;;;75.47;12.10;;;1.20;99.90;;;;;;5019582;28;20205;-83
2022/12/12 04:44:35;;;;;;;75.28;10.68;;;1.20;99.90;;;;;;5021115;28;20205;-83
2022/12/12 04:47:02;;;;;;;76.38;11.13;;;1.10;99.90;;;;;;5021583;28;20197;-83
2022/12/12 04:49:30;;;;;;;77.28;11.93;;;1.10;99.90;;;;;;5003570;28;20276;-82
2022/12/12 04:52:04;;;;;;;76.13;11.63;;;1.10;99.90;;;;;;5021271;28;20279;-82
2022/12/12 04:54:52;;;;;;;77.82;12.30;;;1.10;99.90;;;;;;5021246;28;20186;-83
2022/12/12 04:57:25;;;;;;;74.00;10.52;;;0.90;99.90;;;;;;5020916;28;20615;-83
2022/12/12 04:59:51;;;;;;;77.10;11.23;;;0.90;99.90;;;;;;5020911;28;20150;-83
2022/12/12 05:02:22;;;;;;;75.73;10.77;;;0.80;99.90;;;;;;5021445;28;20182;-83
2022/12/12 05:04:54;;;;;;;79.00;11.02;;;0.80;99.90;;;;;;5021015;28;20253;-83
2022/12/12 05:07:36;;;;;;;76.13;9.77;;;0.70;99.90;;;;;;5021272;28;20170;-83
2022/12/12 05:10:05;;;;;;;79.20;11.50;;;0.70;99.90;;;;;;5020841;28;20208;-83
2022/12/12 05:12:39;;;;;;;76.75;12.07;;;0.70;99.90;;;;;;5110439;23;20240;-84
2022/12/12 05:15:06;;;;;;;79.32;12.15;;;0.80;99.90;;;;;;5018935;28;20157;-85
2022/12/12 05:17:43;;;;;;;78.22;11.27;;;0.70;99.90;;;;;;5018170;28;20672;-84
2022/12/12 05:20:10;;;;;;;77.22;12.05;;;0.80;99.90;;;;;;5017232;28;20271;-82
2022/12/12 05:22:35;;;;;;;77.45;11.25;;;0.90;99.90;;;;;;5018372;28;20201;-82
2022/12/12 05:25:02;;;;;;;77.10;10.30;;;0.80;99.90;;;;;;5017208;28;20170;-82
2022/12/12 05:27:27;;;;;;;75.28;11.25;;;0.80;99.90;;;;;;5018552;28;20404;-82
2022/12/12 05:29:53;;;;;;;76.30;11.33;;;0.90;99.90;;;;;;5018106;28;20709;-82
2022/12/12 05:32:19;;;;;;;76.70;10.77;;;0.80;99.90;;;;;;5017722;28;20610;-82
2022/12/12 05:34:44;;;;;;;76.63;11.40;;;0.90;99.90;;;;;;5017663;28;20188;-82
2022/12/12 05:37:10;;;;;;;79.97;12.17;;;0.90;99.90;;;;;;5017849;28;20285;-82
2022/12/12 05:39:36;;;;;;;74.20;10.80;;;0.80;99.90;;;;;;5017542;28;20161;-82
2022/12/12 05:42:01;;;;;;;76.40;11.10;;;0.80;99.90;;;;;;5017917;28;20221;-82
2022/12/12 05:44:27;;;;;;;76.23;10.63;;;0.70;99.90;;;;;;5017178;28;20169;-82
2022/12/12 05:46:53;;;;;;;74.70;11.37;;;0.70;99.90;;;;;;5016507;28;20166;-82
2022/12/12 05:49:18;;;;;;;78.70;11.77;;;0.70;99.90;;;;;;5016226;28;20173;-82
2022/12/12 05:51:44;;;;;;;75.00;11.20;;;0.80;99.90;;;;;;5017894;28;20188;-82
2022/12/12 05:54:10;;;;;;;79.87;11.83;;;0.80;99.90;;;;;;5017594;28;20166;-82
2022/12/12 05:56:36;;;;;;;77.53;13.37;;;0.70;99.90;;;;;;5017630;28;20189;-82
2022/12/12 05:59:01;;;;;;;76.60;10.87;;;0.70;99.90;;;;;;5017430;28;20772;-81
2022/12/12 06:01:27;;;;;;;79.50;11.07;;;0.80;99.90;;;;;;5017413;28;20182;-82
2022/12/12 06:03:53;;;;;;;76.97;11.50;;;0.80;99.90;;;;;;5016221;28;20445;-82
2022/12/12 06:06:18;;;;;;;78.33;10.17;;;0.80;99.90;;;;;;5017336;28;20197;-82
2022/12/12 06:08:44;;;;;;;75.63;11.53;;;0.80;99.90;;;;;;5017619;28;20170;-82
2022/12/12 06:11:10;;;;;;;76.67;10.93;;;0.90;99.90;;;;;;5017506;28;20206;-82
2022/12/12 06:13:36;;;;;;;80.10;12.40;;;0.80;99.90;;;;;;5017574;28;20646;-82
2022/12/12 06:16:07;;;;;;;76.47;11.82;;;0.80;99.90;;;;;;5017172;28;20170;-82
2022/12/12 06:18:33;;;;;;;77.18;9.82;;;0.70;99.90;;;;;;5017228;28;20658;-82
2022/12/12 06:21:11;;;;;;;75.53;10.20;;;0.70;99.90;;;;;;5015955;28;20193;-82
2022/12/12 06:23:40;;;;;;;76.88;11.90;;;0.70;99.90;;;;;;5017239;28;20440;-81
2022/12/12 06:26:08;;;;;;;78.68;11.88;;;0.70;99.90;;;;;;5017342;28;20166;-81
2022/12/12 06:28:34;;;;;;;78.57;11.57;;;0.80;99.90;;;;;;5017149;28;20177;-81
2022/12/12 06:30:59;;;;;;;78.38;11.18;;;0.80;99.90;;;;;;5016980;28;20186;-81
2022/12/12 06:33:26;;;;;;;77.97;11.60;;;0.70;99.90;;;;;;5017000;28;20711;-81
2022/12/12 06:36:07;;;;;;;79.38;12.30;;;0.70;99.90;;;;;;5017017;28;20221;-81
2022/12/12 06:38:34;;;;;;;76.70;11.32;;;0.70;99.90;;;;;;5015332;28;20174;-81
2022/12/12 06:41:08;;;;;;;74.75;11.68;;;0.80;99.90;;;;;;5015370;28;20200;-81
2022/12/12 06:43:34;;;;;;;75.00;10.45;;;0.80;99.90;;;;;;5017168;28;20178;-81
2022/12/12 06:46:05;;;;;;;77.38;11.07;;;0.90;99.90;;;;;;5017050;28;20166;-81
2022/12/12 06:48:33;;;;;;;79.85;12.50;;;0.90;99.90;;;;;;5015473;28;20626;-81
2022/12/12 06:50:59;;;;;;;77.45;11.55;;;0.90;99.90;;;;;;5016571;28;20567;-81
2022/12/12 06:53:25;;;;;;;76.53;11.30;;;0.80;99.90;;;;;;5016183;28;20519;-84
2022/12/12 06:55:51;;;;;;;76.63;11.30;;;0.80;99.90;;;;;;5019541;28;20407;-83
2022/12/12 06:58:16;;;;;;;75.13;11.20;;;0.80;99.90;;;;;;5021054;28;20201;-81
2022/12/12 07:00:42;;;;;;;78.90;12.57;;;0.80;99.90;;;;;;5019433;28;20196;-81
2022/12/12 07:03:11;;;;;;;74.97;12.23;;;0.70;99.90;;;;;;5020056;28;20264;-81
2022/12/12 07:05:37;;;;;;;77.90;11.93;;;0.70;99.90;;;;;;5018773;28;20166;-81
2022/12/12 07:08:03;;;;;;;81.50;12.23;;;0.70;99.90;;;;;;5020340;28;20507;-81
2022/12/12 07:10:30;;;;;;;76.72;11.55;;;0.60;99.90;;;;;;5020498;28;20178;-81
2022/12/12 07:12:55;;;;;;;79.72;11.18;;;0.70;99.90;;;;;;5019398;28;20220;-82
2022/12/12 07:15:22;;;;;;;80.40;11.70;;;0.70;99.90;;;;;;5021424;28;20170;-81
2022/12/12 07:17:52;;;;;;;76.97;11.52;;;0.70;99.90;;;;;;5020609;28;20402;-81
2022/12/12 07:20:21;;;;;;;75.30;11.00;;;0.70;99.90;;;;;;5020224;28;20189;-81
2022/12/12 07:22:47;;;;;;;78.28;10.90;;;0.80;99.90;;;;;;5018422;28;20273;-81
2022/12/12 07:25:13;;;;;;;78.83;11.77;;;0.80;99.90;;;;;;5020161;28;20609;-81
2022/12/12 07:27:39;;;;;;;73.03;10.33;;;0.80;99.90;;;;;;5019373;28;20514;-81
2022/12/12 07:30:05;;;;;;;82.33;12.07;;;0.80;99.90;;;;;;5020624;28;20494;-81
2022/12/12 07:32:30;;;;;;;80.40;10.50;;;0.70;99.90;;;;;;5018824;28;20413;-81
2022/12/12 07:34:56;;;;;;;78.60;10.70;;;0.50;99.90;;;;;;5020580;28;20257;-81
2022/12/12 07:37:22;;;;;;;80.07;12.27;;;0.40;99.90;;;;;;5021800;28;20228;-82
2022/12/12 07:39:48;;;;;;;77.00;12.70;;;0.40;99.90;;;;;;5026070;28;20162;-82
2022/12/12 07:42:13;;;;;;;82.23;10.57;;;0.20;99.90;;;;;;5027304;28;20593;-82
2022/12/12 07:44:39;;;;;;;78.10;10.77;;;0.30;99.90;;;;;;5025484;28;20236;-82
2022/12/12 07:47:05;;;;;;;77.67;11.40;;;0.30;99.90;;;;;;5026912;28;20166;-82
2022/12/12 07:49:31;;;;;;;77.70;10.98;;;0.20;99.90;;;;;;5023642;28;20181;-82
2022/12/12 07:51:57;;;;;;;79.72;12.60;;;0.20;99.90;;;;;;5025385;28;20181;-82
2022/12/12 07:54:22;;;;;;;84.37;13.77;;;0.20;99.90;;;;;;5027347;28;20273;-82
2022/12/12 07:56:48;;;;;;;85.80;14.67;;;0.20;99.90;;;;;;5029418;28;20221;-82
2022/12/12 07:59:14;;;;;;;87.40;14.93;;;0.10;99.90;;;;;;5028573;28;20186;-82
2022/12/12 08:01:39;;;;;;;79.00;14.00;;;0.20;99.90;;;;;;5028111;28;20185;-82
2022/12/12 08:04:05;;;;;;;80.00;13.93;;;0.20;99.90;;;;;;5024977;28;20170;-82
2022/12/12 08:06:31;;;;;;;81.17;13.47;;;0.10;99.90;;;;;;5021994;28;20170;-82
2022/12/12 08:08:57;;;;;;;80.22;11.75;;;0.10;99.90;;;;;;5022524;28;20605;-82
2022/12/12 08:11:24;;;;;;;80.70;11.73;;;0.10;99.90;;;;;;5023450;28;20186;-82
2022/12/12 08:13:50;;;;;;;79.93;12.32;;;0.20;99.90;;;;;;5022585;28;20425;-82
2022/12/12 08:16:19;;;;;;;83.35;12.15;;;0.30;99.90;;;;;;5022154;28;20198;-82
2022/12/12 08:18:45;;;;;;;78.68;11.65;;;0.30;99.90;;;;;;5021984;28;20185;-82
2022/12/12 08:21:12;;;;;;;75.68;10.90;;;0.20;99.90;;;;;;5025024;28;20186;-82
2022/12/12 08:23:38;;;;;;;79.28;14.00;;;0.10;99.90;;;;;;5022928;28;20198;-83
2022/12/12 08:26:07;;;;;;;77.72;11.15;;;0.10;99.90;;;;;;5024820;28;20507;-80
2022/12/12 08:28:33;;;;;;;76.43;12.20;;;0.20;99.90;;;;;;5021780;28;20166;-79
2022/12/12 08:30:58;;;;;;;74.82;11.60;;;0.10;99.90;;;;;;5020828;28;20269;-78
2022/12/12 08:33:24;;;;;;;81.73;12.87;;;0.00;99.90;;;;;;5021372;28;20598;-78
2022/12/12 08:35:50;;;;;;;77.77;11.20;;;0.00;99.90;;;;;;5019795;28;20197;-78
2022/12/12 08:38:15;;;;;;;78.93;10.60;;;0.10;99.90;;;;;;5021821;28;20177;-78
2022/12/12 08:40:41;;;;;;;79.27;11.80;;;0.10;99.90;;;;;;5019810;28;20190;-78
2022/12/12 08:43:08;;;;;;;78.87;13.70;;;0.10;99.90;;;;;;5021646;28;20193;-78
2022/12/12 08:45:36;;;;;;;77.38;11.98;;;0.00;99.90;;;;;;5022062;28;20162;-77
2022/12/12 08:48:02;;;;;;;79.50;13.07;;;0.10;99.90;;;;;;5021338;28;20184;-78
2022/12/12 08:50:35;;;;;;;79.38;12.73;;;0.10;99.90;;;;;;5031890;28;20185;-85
2022/12/12 08:53:01;;;;;;;76.65;12.15;;;0.10;99.90;;;;;;5030890;28;20266;-87
2022/12/12 08:55:27;;;;;;;79.07;12.60;;;0.10;99.90;;;;;;5029670;28;20626;-87
2022/12/12 08:57:52;;;;;;;75.90;11.03;;;0.10;99.90;;;;;;5034593;28;20170;-88
2022/12/12 09:00:18;;;;;;;79.43;12.80;;;0.10;99.90;;;;;;5034683;28;20213;-87
2022/12/12 09:02:44;;;;;;;84.40;13.10;;;0.00;99.90;;;;;;5031385;28;20254;-88
2022/12/12 09:05:10;;;;;;;86.72;13.00;;;0.10;99.90;;;;;;5029266;28;20601;-88
2022/12/12 09:07:38;;;;;;;78.33;12.00;;;0.10;99.90;;;;;;5025603;28;20162;-88
2022/12/12 09:12:38;;;;;;;79.22;11.82;;;0.20;99.90;;;;;;5042420;28;20205;-88
2022/12/12 09:15:04;;;;;;;80.80;13.43;;;0.20;99.90;;;;;;5027764;28;20276;-88
2022/12/12 09:17:30;;;;;;;77.90;11.77;;;0.20;99.90;;;;;;5044593;28;20161;-88
2022/12/12 09:19:56;;;;;;;78.80;12.33;;;0.10;99.90;;;;;;5027597;28;20169;-88
2022/12/12 09:22:22;;;;;;;80.23;12.37;;;0.10;99.90;;;;;;5028913;28;20448;-87
2022/12/12 09:24:50;;;;;;;80.73;13.40;;;0.00;99.90;;;;;;5011184;28;20186;-88
2022/12/12 09:27:16;;;;;;;81.07;13.80;;;0.10;99.90;;;;;;5024900;28;20162;-88
2022/12/12 09:29:41;;;;;;;78.30;12.03;;;0.10;99.90;;;;;;5020886;28;20225;-88
2022/12/12 09:32:08;;;;;;;80.63;13.13;;;0.10;99.90;;;;;;5023700;28;20185;-88
2022/12/12 09:34:35;;;;;;;78.43;12.25;;;0.20;99.90;;;;;;5021566;28;20236;-88
2022/12/12 09:37:01;;;;;;;80.63;13.00;;;0.20;99.90;;;;;;5023747;28;20645;-88
2022/12/12 09:39:26;;;;;;;78.83;12.67;;;0.20;99.90;;;;;;5023682;28;20177;-87
2022/12/12 09:41:55;;;;;;;78.97;12.40;;;0.10;99.90;;;;;;5027045;28;20221;-85
2022/12/12 09:44:22;;;;;;;80.85;11.73;;;0.30;99.90;;;;;;5026305;28;20158;-86
2022/12/12 09:47:04;;;;;;;79.20;11.75;;;0.40;99.90;;;;;;5007711;28;20173;-86
2022/12/12 09:49:35;;;;;;;79.55;11.25;;;0.40;99.90;;;;;;5010618;28;20162;-85
2022/12/12 09:52:02;;;;;;;79.35;12.77;;;0.50;99.90;;;;;;5027802;28;20721;-86
2022/12/12 09:54:28;;;;;;;77.95;11.93;;;0.60;99.90;;;;;;5003028;28;20170;-86
2022/12/12 09:57:29;;;;;;;;;;;;;;;;;;;;;
2022/12/12 10:00:11;;;;;;;79.05;11.18;;;0.70;99.90;;;;;;5020908;28;20237;-86
2022/12/12 10:03:05;;;;;;;77.57;12.35;;;0.80;99.90;;;;;;5023929;28;20181;-86
2022/12/12 10:05:43;;;;;;;82.55;13.45;;;0.60;99.90;;;;;;5025352;28;20169;-86
2022/12/12 10:08:40;;;;;;;79.25;12.55;;;0.60;99.90;;;;;;5030184;28;20162;-86
2022/12/12 10:11:49;;;;;;;81.10;13.45;;;0.60;99.90;;;;;;5005791;28;20202;-86
2022/12/12 10:14:01;;;;;;;77.75;12.35;;;0.50;99.90;;;;;;5009095;28;20169;-86
2022/12/12 10:16:31;;;;;;;80.70;12.68;;;0.50;99.90;;;;;;5005141;28;20220;-86
2022/12/12 10:19:07;;;;;;;78.07;12.68;;;0.60;99.90;;;;;;5004087;28;20565;-86
2022/12/12 10:21:33;;;;;;;80.20;13.65;;;0.60;99.90;;;;;;5021760;28;20235;-86
2022/12/12 10:24:32;;;;;;;75.97;11.43;;;0.60;99.90;;;;;;5003510;28;20285;-86
2022/12/12 10:27:07;;;;;;;80.47;13.05;;;0.80;99.90;;;;;;5003868;28;20186;-86
2022/12/12 10:29:33;;;;;;;77.68;12.60;;;0.80;99.90;;;;;;5024763;28;20145;-86
2022/12/12 10:32:33;;;;;;;82.72;14.15;;;0.90;99.90;;;;;;5005877;28;20185;-86
2022/12/12 10:35:27;;;;;;;80.55;12.57;;;0.90;99.90;;;;;;5022982;28;20172;-86
2022/12/12 10:38:28;;;;;;;81.80;12.18;;;1.10;99.90;;;;;;4999692;28;20184;-87
2022/12/12 10:41:09;;;;;;;85.43;15.20;;;1.20;99.90;;;;;;4997162;28;20200;-88
2022/12/12 10:43:57;;;;;;;82.55;13.13;;;1.10;99.90;;;;;;5015595;28;20173;-88
2022/12/12 10:46:45;;;;;;;78.00;12.52;;;1.10;99.90;;;;;;5015910;28;20170;-88
2022/12/12 10:49:18;;;;;;;84.25;14.68;;;1.30;99.90;;;;;;4997282;28;20534;-88
2022/12/12 10:51:47;;;;;;;83.28;13.40;;;1.40;99.90;;;;;;4998170;28;20186;-88
2022/12/12 10:54:26;;;;;;;85.10;13.30;;;1.40;99.90;;;;;;5015672;28;20173;-88
2022/12/12 10:57:08;;;;;;;77.25;12.15;;;1.30;99.90;;;;;;5015023;28;20169;-88
2022/12/12 10:59:39;;;;;;;78.45;11.52;;;1.30;99.90;;;;;;5016220;28;20158;-88
2022/12/12 11:02:37;;;;;;;79.63;11.77;;;1.40;99.90;;;;;;5015504;28;20190;-88
2022/12/12 11:05:26;;;;;;;79.43;12.02;;;1.50;99.90;;;;;;5015523;28;20510;-88
2022/12/12 11:08:16;;;;;;;83.70;13.70;;;1.60;99.90;;;;;;5014746;28;20166;-88
2022/12/12 11:10:42;;;;;;;80.30;10.55;;;1.70;99.90;;;;;;5015056;28;20197;-88
2022/12/12 11:13:08;;;;;;;82.87;12.07;;;1.70;99.90;;;;;;5054390;23;20210;-89
2022/12/12 11:15:48;;;;;;;83.90;12.00;;;1.60;99.90;;;;;;4981426;28;20455;-88
2022/12/12 11:18:17;;;;;;;81.00;11.57;;;1.60;99.90;;;;;;4981564;28;20185;-88
2022/12/12 11:21:11;;;;;;;81.63;13.38;;;1.70;99.90;;;;;;4980179;28;20313;-88
2022/12/12 11:23:50;;;;;;;80.15;13.30;;;1.70;99.90;;;;;;4971514;28;20217;-88
2022/12/12 11:26:19;;;;;;;78.63;12.98;;;1.80;99.90;;;;;;4996577;28;20182;-88
2022/12/12 11:28:52;;;;;;;79.53;11.90;;;1.90;99.90;;;;;;4996797;28;20634;-88
2022/12/12 11:31:22;;;;;;;80.15;13.18;;;1.80;99.90;;;;;;4979235;28;20187;-88
2022/12/12 11:33:55;;;;;;;80.55;14.60;;;1.60;99.90;;;;;;4978853;28;20266;-88
2022/12/12 11:36:28;;;;;;;77.55;13.25;;;1.60;99.90;;;;;;4978607;28;20159;-88
2022/12/12 11:39:00;;;;;;;81.18;12.77;;;1.60;99.90;;;;;;4978314;28;20167;-88
2022/12/12 11:41:25;;;;;;;83.68;13.82;;;1.60;99.90;;;;;;4996724;28;20186;-88
2022/12/12 11:43:54;;;;;;;81.97;13.97;;;1.60;99.90;;;;;;5000764;28;20190;-86
2022/12/12 11:46:26;;;;;;;81.05;12.50;;;1.70;99.90;;;;;;5000203;28;20225;-87
2022/12/12 11:48:52;;;;;;;82.93;15.32;;;1.70;99.90;;;;;;4982482;28;20166;-88
2022/12/12 11:51:29;;;;;;;82.73;13.23;;;1.60;99.90;;;;;;4999023;28;20532;-88
2022/12/12 11:53:55;;;;;;;82.82;14.00;;;1.60;99.90;;;;;;4981509;28;20626;-88
2022/12/12 11:56:30;;;;;;;85.50;14.32;;;1.60;99.90;;;;;;4998099;28;20173;-88
2022/12/12 11:59:26;;;;;;;85.82;14.15;;;1.60;99.90;;;;;;4980430;28;20646;-88
2022/12/12 12:02:19;;;;;;;78.45;12.40;;;1.60;99.90;;;;;;4997719;28;20198;-88
2022/12/12 12:05:00;;;;;;;85.78;12.75;;;1.60;99.90;;;;;;4980451;28;20586;-88
2022/12/12 12:07:55;;;;;;;84.97;14.30;;;1.50;99.90;;;;;;4980630;28;20170;-88
2022/12/12 12:10:57;;;;;;;76.82;12.20;;;1.50;99.90;;;;;;4998186;28;20180;-88
2022/12/12 12:13:40;;;;;;;78.53;11.63;;;1.60;99.90;;;;;;4999011;28;20216;-88
2022/12/12 12:16:44;;;;;;;80.70;12.25;;;1.60;99.90;;;;;;4998848;28;20162;-88
2022/12/12 12:19:29;;;;;;;84.18;13.55;;;1.50;99.90;;;;;;4998409;28;20238;-88
2022/12/12 12:22:03;;;;;;;79.55;12.48;;;1.60;99.90;;;;;;4997775;28;20216;-88
2022/12/12 12:24:42;;;;;;;79.55;13.65;;;1.50;99.90;;;;;;4998229;28;20609;-88
2022/12/12 12:27:23;;;;;;;79.97;11.55;;;1.50;99.90;;;;;;4980162;28;20155;-88
2022/12/12 12:30:02;;;;;;;79.32;13.25;;;1.50;99.90;;;;;;4998237;28;20166;-88
2022/12/12 12:33:04;;;;;;;85.25;14.20;;;1.60;99.90;;;;;;4997692;28;20150;-88
2022/12/12 12:35:52;;;;;;;82.60;13.00;;;1.60;99.90;;;;;;4997425;28;20162;-88
2022/12/12 12:38:39;;;;;;;88.28;13.13;;;1.60;99.90;;;;;;4997230;28;20155;-88
2022/12/12 12:41:26;;;;;;;81.55;13.23;;;1.50;99.90;;;;;;4979573;28;20208;-88
2022/12/12 12:44:07;;;;;;;76.50;10.85;;;1.60;99.90;;;;;;4979190;28;20202;-88
2022/12/12 12:46:55;;;;;;;82.20;14.13;;;1.50;99.90;;;;;;4996338;28;20151;-88
2022/12/12 12:49:39;;;;;;;83.68;14.77;;;1.60;99.90;;;;;;4996654;28;20262;-88
2022/12/12 12:52:15;;;;;;;81.28;11.32;;;1.70;99.90;;;;;;4996298;28;20248;-88
2022/12/12 12:54:48;;;;;;;81.53;12.77;;;1.60;99.90;;;;;;4997184;28;20155;-88
2022/12/12 12:57:38;;;;;;;77.57;12.23;;;1.50;99.90;;;;;;4979252;28;20181;-88
2022/12/12 13:00:13;;;;;;;77.82;12.20;;;1.50;99.90;;;;;;4996995;28;20151;-88
2022/12/12 13:02:44;;;;;;;79.38;12.52;;;1.60;99.90;;;;;;4979154;28;20186;-88
2022/12/12 13:05:49;;;;;;;86.43;12.80;;;1.70;99.90;;;;;;4979286;28;20166;-88
2022/12/12 13:08:30;;;;;;;82.35;13.60;;;1.70;99.90;;;;;;4997176;28;20594;-88
2022/12/12 13:11:34;;;;;;;81.97;13.35;;;1.60;99.90;;;;;;4996692;28;20187;-88
2022/12/12 13:14:21;;;;;;;81.70;13.70;;;1.60;99.90;;;;;;4972866;28;20245;-88
2022/12/12 13:16:49;;;;;;;87.57;14.52;;;1.70;99.90;;;;;;4979615;28;20167;-88
2022/12/12 13:19:26;;;;;;;86.22;14.23;;;1.80;99.90;;;;;;4979480;28;20176;-88
2022/12/12 13:22:15;;;;;;;81.88;14.10;;;1.80;99.90;;;;;;4979053;28;20191;-88